createdAt,value
2022-12-01T00:01:25.036Z,11.43
2022-12-01T00:04:26.637Z,10.95
2022-12-01T00:07:28.283Z,11.65
2022-12-01T00:10:29.868Z,11.38
2022-12-01T00:13:31.951Z,11.25
2022-12-01T00:16:34.279Z,11.63
2022-12-01T00:19:35.971Z,12.03
2022-12-01T00:22:38.394Z,12.05
2022-12-01T00:25:39.972Z,11.30
2022-12-01T00:28:42.052Z,10.93
2022-12-01T00:31:43.643Z,12.35
2022-12-01T00:34:45.277Z,11.18
2022-12-01T00:37:46.846Z,11.30
2022-12-01T00:40:48.376Z,11.00
2022-12-01T00:43:50.698Z,10.85
2022-12-01T00:46:52.294Z,11.77
2022-12-01T00:49:53.918Z,11.60
2022-12-01T00:52:55.494Z,11.38
2022-12-01T00:55:57.271Z,10.75
2022-12-01T00:58:59.251Z,11.10
2022-12-01T01:02:00.881Z,10.98
2022-12-01T01:05:02.460Z,11.73
2022-12-01T01:08:07.791Z,11.18
2022-12-01T01:11:09.927Z,10.75
2022-12-01T01:14:11.480Z,11.32
2022-12-01T01:17:13.030Z,11.25
2022-12-01T01:20:14.617Z,10.57
2022-12-01T01:23:16.167Z,11.38
2022-12-01T01:26:23.859Z,10.80
2022-12-01T01:29:25.381Z,10.57
2022-12-01T01:32:26.892Z,10.90
2022-12-01T01:35:28.436Z,10.68
2022-12-01T01:38:30.282Z,10.60
2022-12-01T01:41:31.802Z,11.27
2022-12-01T01:44:59.758Z,11.57
2022-12-01T01:48:03.671Z,11.57
2022-12-01T01:51:06.072Z,11.63
2022-12-01T01:54:15.584Z,11.82
2022-12-01T01:57:24.348Z,11.38
2022-12-01T02:00:25.958Z,12.13
2022-12-01T02:03:28.281Z,11.30
2022-12-01T02:06:29.870Z,11.63
2022-12-01T02:09:31.437Z,11.82
2022-12-01T02:12:58.747Z,11.45
2022-12-01T02:16:20.808Z,11.90
2022-12-01T02:19:28.258Z,12.75
2022-12-01T02:22:53.923Z,12.83
2022-12-01T02:26:01.927Z,13.40
2022-12-01T02:29:30.258Z,12.90
2022-12-01T02:32:46.953Z,13.13
2022-12-01T02:36:06.677Z,12.80
2022-12-01T02:39:19.504Z,13.88
2022-12-01T02:42:48.749Z,12.95
2022-12-01T02:46:05.742Z,12.55
2022-12-01T02:49:13.154Z,12.95
2022-12-01T02:52:16.155Z,13.35
2022-12-01T02:55:17.810Z,13.53
2022-12-01T02:58:19.869Z,13.75
2022-12-01T03:01:32.405Z,13.73
2022-12-01T03:04:56.776Z,13.20
2022-12-01T03:08:07.431Z,13.00
2022-12-01T03:11:26.802Z,13.50
2022-12-01T03:14:45.675Z,12.43
2022-12-01T03:17:59.950Z,12.38
2022-12-01T03:21:10.327Z,11.95
2022-12-01T03:24:15.339Z,13.13
2022-12-01T03:27:21.364Z,11.73
2022-12-01T03:30:25.348Z,12.40
2022-12-01T03:33:33.941Z,11.90
2022-12-01T03:36:41.024Z,12.10
2022-12-01T03:39:45.134Z,12.95
2022-12-01T03:42:53.492Z,13.07
2022-12-01T03:46:27.613Z,12.65
2022-12-01T03:49:30.117Z,12.10
2022-12-01T03:52:59.805Z,13.20
2022-12-01T03:56:04.844Z,13.15
2022-12-01T03:59:09.828Z,12.93
2022-12-01T04:02:12.450Z,13.65
2022-12-01T04:05:14.619Z,13.27
2022-12-01T04:08:16.172Z,13.63
2022-12-01T04:11:36.179Z,14.15
2022-12-01T04:14:37.725Z,14.05
2022-12-01T04:17:40.181Z,13.27
2022-12-01T04:20:43.399Z,14.75
2022-12-01T04:24:00.079Z,13.60
2022-12-01T04:27:01.657Z,13.88
2022-12-01T04:30:05.568Z,14.07
2022-12-01T04:33:07.138Z,14.57
2022-12-01T04:36:09.184Z,13.45
2022-12-01T04:39:10.723Z,13.83
2022-12-01T04:42:12.535Z,13.18
2022-12-01T04:45:14.034Z,13.30
2022-12-01T04:48:15.720Z,14.20
2022-12-01T04:51:17.621Z,13.65
2022-12-01T04:54:19.215Z,13.32
2022-12-01T04:57:20.722Z,12.98
2022-12-01T05:00:23.087Z,13.13
2022-12-01T05:03:24.616Z,14.15
2022-12-01T05:06:28.324Z,13.90
2022-12-01T05:09:29.863Z,13.20
2022-12-01T05:12:31.687Z,14.02
2022-12-01T05:15:33.260Z,13.35
2022-12-01T05:18:35.301Z,13.82
2022-12-01T05:21:36.899Z,12.02
2022-12-01T05:24:38.432Z,13.68
2022-12-01T05:27:39.974Z,13.38
2022-12-01T05:30:41.562Z,12.73
2022-12-01T05:33:43.109Z,12.88
2022-12-01T05:36:44.669Z,14.00
2022-12-01T05:39:46.382Z,13.83
2022-12-01T05:42:48.197Z,14.25
2022-12-01T05:45:50.250Z,12.80
2022-12-01T05:48:52.007Z,13.50
2022-12-01T05:51:53.587Z,13.23
2022-12-01T05:54:55.091Z,12.15
2022-12-01T05:57:56.592Z,11.95
2022-12-01T06:00:58.720Z,12.53
2022-12-01T06:04:00.342Z,12.48
2022-12-01T06:07:01.945Z,12.43
2022-12-01T06:10:03.872Z,12.17
2022-12-01T06:13:05.401Z,12.07
2022-12-01T06:16:07.469Z,12.57
2022-12-01T06:19:09.069Z,12.38
2022-12-01T06:22:11.003Z,12.25
2022-12-01T06:25:12.680Z,12.40
2022-12-01T06:28:14.400Z,13.15
2022-12-01T06:31:15.924Z,12.93
2022-12-01T06:34:17.457Z,11.73
2022-12-01T06:37:19.064Z,12.75
2022-12-01T06:40:20.657Z,11.57
2022-12-01T06:43:22.183Z,12.38
2022-12-01T06:46:23.776Z,12.23
2022-12-01T06:49:25.320Z,12.30
2022-12-01T06:52:26.859Z,12.35
2022-12-01T06:55:28.406Z,12.45
2022-12-01T06:58:30.382Z,12.70
2022-12-01T07:01:32.307Z,12.57
2022-12-01T07:04:34.010Z,12.10
2022-12-01T07:07:37.229Z,12.57
2022-12-01T07:10:38.767Z,12.53
2022-12-01T07:13:42.139Z,12.70
2022-12-01T07:16:43.768Z,12.85
2022-12-01T07:19:45.377Z,12.30
2022-12-01T07:22:46.942Z,11.70
2022-12-01T07:25:48.481Z,12.20
2022-12-01T07:28:50.009Z,12.40
2022-12-01T07:31:51.525Z,12.53
2022-12-01T07:34:53.039Z,13.13
2022-12-01T07:37:57.577Z,12.80
2022-12-01T07:41:09.680Z,12.87
2022-12-01T07:44:11.304Z,11.85
2022-12-01T07:47:12.882Z,12.45
2022-12-01T07:50:14.435Z,12.27
2022-12-01T07:53:15.994Z,11.88
2022-12-01T07:56:18.342Z,12.45
2022-12-01T07:59:20.424Z,12.23
2022-12-01T08:02:22.112Z,12.63
2022-12-01T08:05:23.696Z,12.95
2022-12-01T08:08:25.861Z,12.13
2022-12-01T08:11:29.839Z,11.87
2022-12-01T08:14:31.404Z,12.35
2022-12-01T08:17:32.997Z,12.05
2022-12-01T08:20:34.524Z,13.20
2022-12-01T08:23:36.105Z,13.27
2022-12-01T08:26:37.630Z,13.18
2022-12-01T08:29:39.157Z,13.65
2022-12-01T08:32:40.717Z,15.47
2022-12-01T08:35:42.309Z,12.23
2022-12-01T08:38:45.276Z,12.60
2022-12-01T08:41:46.847Z,12.50
2022-12-01T08:44:48.565Z,13.30
2022-12-01T08:47:50.420Z,14.00
2022-12-01T08:50:52.039Z,14.00
2022-12-01T08:53:55.388Z,14.10
2022-12-01T08:56:56.977Z,12.15
2022-12-01T08:59:58.727Z,15.20
2022-12-01T09:03:00.950Z,12.87
2022-12-01T09:06:05.348Z,12.93
2022-12-01T09:09:11.676Z,12.48
2022-12-01T09:12:13.414Z,14.90
2022-12-01T09:15:15.063Z,15.43
2022-12-01T09:18:16.598Z,16.52
2022-12-01T09:21:26.964Z,16.55
2022-12-01T09:24:28.483Z,13.43
2022-12-01T09:27:29.987Z,12.52
2022-12-01T09:30:31.583Z,14.63
2022-12-01T09:33:33.577Z,20.30
2022-12-01T09:36:37.102Z,16.02
2022-12-01T09:39:38.627Z,13.88
2022-12-01T09:42:40.768Z,15.50
2022-12-01T09:45:47.473Z,15.75
2022-12-01T09:48:51.380Z,15.65
2022-12-01T09:51:54.489Z,13.90
2022-12-01T09:54:59.225Z,21.48
2022-12-01T09:58:03.331Z,13.52
2022-12-01T10:01:05.197Z,14.98
2022-12-01T10:04:16.564Z,15.67
2022-12-01T10:07:25.414Z,13.80
2022-12-01T10:10:34.802Z,14.15
2022-12-01T10:13:36.420Z,13.47
2022-12-01T10:16:47.933Z,16.67
2022-12-01T10:20:19.079Z,13.23
2022-12-01T10:23:53.044Z,12.23
2022-12-01T10:27:43.537Z,12.55
2022-12-01T10:30:53.817Z,12.68
2022-12-01T10:34:11.420Z,12.77
2022-12-01T10:37:18.899Z,15.60
2022-12-01T10:40:20.594Z,13.85
2022-12-01T10:43:39.447Z,13.77
2022-12-01T10:46:47.464Z,14.77
2022-12-01T10:49:49.517Z,13.68
2022-12-01T10:52:51.320Z,13.88
2022-12-01T10:56:04.741Z,12.95
2022-12-01T10:59:25.397Z,13.43
2022-12-01T11:02:30.403Z,13.23
2022-12-01T11:05:40.436Z,12.52
2022-12-01T11:09:22.903Z,12.57
2022-12-01T11:12:28.696Z,12.27
2022-12-01T11:15:39.647Z,12.82
2022-12-01T11:18:41.803Z,13.37
2022-12-01T11:21:52.362Z,13.57
2022-12-01T11:24:53.814Z,17.25
2022-12-01T11:28:01.340Z,17.85
2022-12-01T11:31:06.462Z,15.25
2022-12-01T11:34:20.570Z,11.85
2022-12-01T11:37:24.756Z,11.55
2022-12-01T11:40:29.689Z,12.43
2022-12-01T11:43:37.338Z,13.68
2022-12-01T11:46:50.165Z,12.90
2022-12-01T11:50:06.976Z,12.67
2022-12-01T11:53:28.689Z,13.65
2022-12-01T11:56:31.356Z,13.07
2022-12-01T11:59:33.227Z,12.30
2022-12-01T12:03:09.973Z,11.75
2022-12-01T12:06:50.471Z,17.25
2022-12-01T12:10:04.187Z,12.18
2022-12-01T12:13:27.470Z,13.43
2022-12-01T12:16:50.601Z,12.55
2022-12-01T12:20:14.107Z,13.27
2022-12-01T12:23:30.977Z,16.33
2022-12-01T12:26:40.395Z,13.82
2022-12-01T12:29:56.436Z,13.43
2022-12-01T12:33:16.661Z,13.07
2022-12-01T12:36:37.094Z,15.60
2022-12-01T12:39:58.943Z,14.07
2022-12-01T12:43:36.555Z,15.23
2022-12-01T12:46:47.053Z,13.80
2022-12-01T12:49:59.686Z,13.93
2022-12-01T12:53:09.407Z,13.48
2022-12-01T12:56:14.615Z,13.97
2022-12-01T12:59:28.092Z,14.07
2022-12-01T13:02:55.435Z,15.88
2022-12-01T13:06:10.012Z,15.63
2022-12-01T13:09:20.188Z,13.55
2022-12-01T13:12:28.313Z,13.27
2022-12-01T13:15:31.393Z,14.50
2022-12-01T13:19:05.850Z,14.10
2022-12-01T13:22:08.204Z,13.82
2022-12-01T13:25:13.992Z,13.18
2022-12-01T13:28:20.808Z,12.57
2022-12-01T13:31:23.080Z,12.60
2022-12-01T13:34:39.705Z,12.63
2022-12-01T13:37:41.960Z,13.02
2022-12-01T13:40:43.593Z,12.20
2022-12-01T13:43:53.239Z,12.85
2022-12-01T13:47:04.372Z,12.68
2022-12-01T13:50:39.000Z,13.53
2022-12-01T13:54:06.242Z,13.48
2022-12-01T13:57:13.979Z,12.70
2022-12-01T14:00:21.825Z,13.03
2022-12-01T14:03:23.384Z,13.38
2022-12-01T14:06:30.951Z,14.10
2022-12-01T14:09:36.882Z,12.57
2022-12-01T14:12:41.576Z,12.50
2022-12-01T14:15:43.751Z,11.55
2022-12-01T14:18:55.965Z,12.40
2022-12-01T14:21:57.869Z,12.77
2022-12-01T14:24:59.924Z,12.93
2022-12-01T14:28:03.884Z,13.82
2022-12-01T14:31:05.907Z,13.90
2022-12-01T14:34:19.112Z,13.00
2022-12-01T14:37:24.815Z,14.77
2022-12-01T14:40:30.079Z,13.73
2022-12-01T14:47:10.920Z,14.50
2022-12-01T14:50:25.092Z,14.27
2022-12-01T14:53:33.945Z,14.70
2022-12-01T14:56:36.857Z,13.20
2022-12-01T14:59:38.441Z,12.57
2022-12-01T15:02:50.936Z,11.83
2022-12-01T15:05:52.630Z,12.95
2022-12-01T15:09:32.194Z,12.70
2022-12-01T15:12:29.481Z,12.63
2022-12-01T15:15:31.003Z,12.65
2022-12-01T15:18:34.871Z,12.88
2022-12-01T15:21:37.375Z,13.43
2022-12-01T15:24:39.427Z,13.27
2022-12-01T15:27:43.385Z,13.38
2022-12-01T15:30:49.947Z,13.70
2022-12-01T15:33:53.305Z,12.53
2022-12-01T15:36:55.437Z,14.63
2022-12-01T15:40:54.071Z,19.67
2022-12-01T15:43:43.498Z,17.65
2022-12-01T15:46:45.531Z,17.45
2022-12-01T15:49:50.039Z,16.02
2022-12-01T15:52:51.797Z,14.70
2022-12-01T15:55:59.000Z,13.67
2022-12-01T15:59:16.061Z,14.63
2022-12-01T16:02:34.152Z,16.05
2022-12-01T16:05:36.142Z,14.23
2022-12-01T16:08:37.924Z,13.48
2022-12-01T16:11:40.101Z,13.55
2022-12-01T16:14:59.845Z,12.80
2022-12-01T16:18:26.629Z,13.00
2022-12-01T16:21:33.426Z,12.10
2022-12-01T16:24:38.586Z,12.38
2022-12-01T16:27:40.679Z,13.00
2022-12-01T16:30:42.289Z,13.80
2022-12-01T16:33:43.910Z,15.43
2022-12-01T16:36:45.728Z,14.97
2022-12-01T16:39:47.281Z,14.35
2022-12-01T16:42:49.957Z,15.15
2022-12-01T16:46:00.474Z,16.30
2022-12-01T16:49:02.127Z,16.55
2022-12-01T16:52:22.172Z,14.93
2022-12-01T16:55:43.517Z,14.88
2022-12-01T16:58:45.127Z,14.43
2022-12-01T17:01:46.856Z,14.60
2022-12-01T17:04:48.726Z,15.00
2022-12-01T17:07:50.778Z,14.07
2022-12-01T17:10:54.716Z,15.70
2022-12-01T17:13:56.256Z,15.25
2022-12-01T17:17:01.042Z,15.15
2022-12-01T17:20:04.184Z,18.75
2022-12-01T17:23:06.209Z,17.15
2022-12-01T17:26:13.046Z,13.50
2022-12-01T17:29:14.582Z,15.50
2022-12-01T17:32:16.135Z,15.15
2022-12-01T17:35:17.978Z,14.93
2022-12-01T17:38:19.535Z,17.07
2022-12-01T17:41:25.476Z,20.88
2022-12-01T17:44:27.034Z,20.50
2022-12-01T17:47:28.603Z,21.83
2022-12-01T17:50:30.138Z,17.08
2022-12-01T17:53:32.922Z,16.02
2022-12-01T17:56:35.233Z,16.92
2022-12-01T17:59:36.922Z,16.83
2022-12-01T18:02:38.659Z,17.50
2022-12-01T18:05:40.233Z,18.58
2022-12-01T18:08:42.774Z,18.90
2022-12-01T18:11:44.333Z,18.60
2022-12-01T18:14:45.863Z,17.42
2022-12-01T18:17:47.423Z,17.55
2022-12-01T18:20:48.942Z,15.95
2022-12-01T18:23:56.264Z,15.25
2022-12-01T18:26:57.860Z,15.48
2022-12-01T18:29:59.373Z,14.83
2022-12-01T18:33:01.649Z,15.05
2022-12-01T18:36:03.944Z,14.50
2022-12-01T18:39:08.083Z,14.80
2022-12-01T18:42:09.761Z,14.77
2022-12-01T18:45:12.758Z,15.73
2022-12-01T18:48:15.873Z,15.43
2022-12-01T18:51:18.218Z,14.40
2022-12-01T18:54:19.731Z,15.73
2022-12-01T18:57:22.532Z,14.18
2022-12-01T19:00:24.153Z,15.23
2022-12-01T19:03:29.405Z,15.77
2022-12-01T19:06:32.723Z,16.80
2022-12-01T19:09:34.273Z,15.87
2022-12-01T19:12:40.827Z,15.45
2022-12-01T19:15:43.054Z,15.02
2022-12-01T19:18:45.412Z,15.75
2022-12-01T19:21:47.441Z,15.95
2022-12-01T19:24:50.745Z,17.25
2022-12-01T19:27:53.211Z,16.27
2022-12-01T19:30:54.765Z,15.77
2022-12-01T19:33:56.460Z,15.88
2022-12-01T19:36:59.459Z,14.85
2022-12-01T19:40:02.094Z,14.27
2022-12-01T19:43:03.711Z,14.38
2022-12-01T19:46:20.229Z,14.82
2022-12-01T19:49:22.215Z,14.02
2022-12-01T19:52:23.890Z,13.23
2022-12-01T19:55:25.764Z,14.13
2022-12-01T19:58:27.291Z,15.13
2022-12-01T20:01:29.038Z,15.20
2022-12-01T20:04:30.899Z,14.75
2022-12-01T20:07:32.512Z,14.70
2022-12-01T20:10:34.373Z,15.60
2022-12-01T20:13:38.387Z,15.32
2022-12-01T20:16:40.478Z,15.73
2022-12-01T20:19:42.080Z,14.40
2022-12-01T20:22:43.715Z,14.48
2022-12-01T20:25:45.216Z,16.75
2022-12-01T20:28:51.246Z,16.05
2022-12-01T20:31:55.052Z,14.23
2022-12-01T20:34:56.666Z,16.40
2022-12-01T20:37:58.170Z,16.25
2022-12-01T20:40:59.818Z,14.77
2022-12-01T20:44:06.921Z,14.93
2022-12-01T20:47:08.967Z,15.48
2022-12-01T20:50:10.718Z,16.30
2022-12-01T20:53:12.357Z,15.98
2022-12-01T20:56:14.488Z,15.85
2022-12-01T20:59:16.016Z,15.85
2022-12-01T21:02:17.557Z,14.47
2022-12-01T21:05:19.097Z,16.17
2022-12-01T21:08:20.644Z,16.70
2022-12-01T21:11:51.762Z,14.50
2022-12-01T21:15:08.962Z,16.10
2022-12-01T21:18:20.639Z,14.82
2022-12-01T21:21:27.587Z,14.60
2022-12-01T21:24:35.012Z,14.70
2022-12-01T21:27:39.544Z,15.10
2022-12-01T21:30:41.095Z,15.48
2022-12-01T21:33:43.227Z,14.87
2022-12-01T21:36:46.602Z,15.35
2022-12-01T21:39:51.112Z,15.88
2022-12-01T21:42:53.202Z,15.63
2022-12-01T21:46:14.226Z,17.20
2022-12-01T21:49:21.240Z,17.05
2022-12-01T21:52:30.116Z,15.73
2022-12-01T21:55:34.912Z,16.55
2022-12-01T21:58:37.346Z,16.45
2022-12-01T22:01:40.328Z,16.27
2022-12-01T22:04:43.303Z,15.50
2022-12-01T22:07:44.894Z,15.55
2022-12-01T22:10:55.948Z,15.80
2022-12-01T22:14:15.564Z,16.23
2022-12-01T22:17:21.686Z,16.48
2022-12-01T22:20:23.237Z,16.45
2022-12-01T22:23:33.280Z,15.70
2022-12-01T22:26:37.537Z,16.42
2022-12-01T22:29:46.990Z,16.75
2022-12-01T22:33:05.184Z,16.05
2022-12-01T22:36:21.941Z,16.03
2022-12-01T22:39:33.924Z,15.95
2022-12-01T22:42:35.508Z,16.20
2022-12-01T22:45:38.612Z,17.00
2022-12-01T22:48:45.115Z,16.75
2022-12-01T22:51:49.512Z,17.20
2022-12-01T22:54:51.367Z,17.02
2022-12-01T22:57:53.937Z,15.30
2022-12-01T23:00:57.935Z,15.45
2022-12-01T23:04:19.740Z,16.35
2022-12-01T23:07:41.489Z,16.53
2022-12-01T23:10:43.375Z,15.52
2022-12-01T23:13:44.906Z,15.40
2022-12-01T23:16:46.542Z,15.97
2022-12-01T23:19:52.990Z,16.33
2022-12-01T23:23:00.503Z,16.35
2022-12-01T23:26:07.500Z,16.55
2022-12-01T23:29:09.094Z,15.88
2022-12-01T23:32:12.268Z,15.77
2022-12-01T23:35:16.827Z,16.80
2022-12-01T23:38:22.151Z,15.33
2022-12-01T23:41:41.047Z,16.77
2022-12-01T23:44:47.135Z,16.27
2022-12-01T23:47:49.954Z,15.37
2022-12-01T23:50:53.657Z,16.27
2022-12-01T23:53:56.759Z,16.42
2022-12-01T23:57:02.684Z,15.40
